createdAt,value
2019-02-02T00:00:35.837Z,55.30
2019-02-02T00:03:07.425Z,52.13
2019-02-02T00:05:37.440Z,54.27
2019-02-02T00:08:07.980Z,54.33
2019-02-02T00:10:37.839Z,52.13
2019-02-02T00:13:08.390Z,53.03
2019-02-02T00:15:38.431Z,56.50
2019-02-02T00:18:08.579Z,54.40
2019-02-02T00:20:38.463Z,51.77
2019-02-02T00:23:08.772Z,61.83
2019-02-02T00:25:57.859Z,57.07
2019-02-02T00:29:06.471Z,57.60
2019-02-02T00:31:55.577Z,55.73
2019-02-02T00:34:44.688Z,53.53
2019-02-02T00:37:33.780Z,55.20
2019-02-02T00:40:23.252Z,55.80
2019-02-02T00:43:12.413Z,59.60
2019-02-02T00:46:01.519Z,59.73
2019-02-02T00:48:50.638Z,60.70
2019-02-02T00:51:39.816Z,62.67
2019-02-02T00:54:28.943Z,55.60
2019-02-02T00:57:18.061Z,60.90
2019-02-02T01:00:09.311Z,59.27
2019-02-02T01:02:58.420Z,65.77
2019-02-02T01:05:47.683Z,59.17
2019-02-02T01:08:36.850Z,56.53
2019-02-02T01:11:26.026Z,55.80
2019-02-02T01:14:15.498Z,58.00
2019-02-02T01:17:25.221Z,57.63
2019-02-02T01:20:07.557Z,63.23
2019-02-02T01:22:56.675Z,58.23
2019-02-02T01:25:45.813Z,60.77
2019-02-02T01:28:34.927Z,59.87
2019-02-02T01:31:24.027Z,60.67
2019-02-02T01:34:13.131Z,57.90
2019-02-02T01:37:02.241Z,66.30
2019-02-02T01:39:51.662Z,63.43
2019-02-02T01:42:40.820Z,64.20
2019-02-02T01:45:30.132Z,63.07
2019-02-02T01:48:19.854Z,64.33
2019-02-02T01:51:09.112Z,63.43
2019-02-02T01:53:58.501Z,64.30
2019-02-02T01:56:47.615Z,58.87
2019-02-02T01:59:36.701Z,61.67
2019-02-02T02:02:25.796Z,64.57
2019-02-02T02:05:15.028Z,61.73
2019-02-02T02:08:04.469Z,68.40
2019-02-02T02:10:53.574Z,68.00
2019-02-02T02:13:43.003Z,66.53
2019-02-02T02:16:32.388Z,61.73
2019-02-02T02:19:12.961Z,65.43
2019-02-02T02:22:02.023Z,68.37
2019-02-02T02:24:51.175Z,66.20
2019-02-02T02:27:40.433Z,69.17
2019-02-02T02:30:29.566Z,69.33
2019-02-02T02:33:18.738Z,69.77
2019-02-02T02:36:08.143Z,65.40
2019-02-02T02:38:57.272Z,67.77
2019-02-02T02:41:46.622Z,74.73
2019-02-02T02:44:35.764Z,74.33
2019-02-02T02:47:24.880Z,74.13
2019-02-02T02:50:54.564Z,69.00
2019-02-02T02:53:43.653Z,81.77
2019-02-02T02:56:32.745Z,76.00
2019-02-02T02:59:21.905Z,78.80
2019-02-02T03:02:10.970Z,77.00
2019-02-02T03:05:00.226Z,75.83
2019-02-02T03:07:51.615Z,81.90
2019-02-02T03:10:40.693Z,81.03
2019-02-02T03:13:30.120Z,86.90
2019-02-02T03:16:19.482Z,79.57
2019-02-02T03:19:03.322Z,79.73
2019-02-02T03:21:52.415Z,88.50
2019-02-02T03:24:41.510Z,90.13
2019-02-02T03:27:30.638Z,85.63
2019-02-02T03:30:20.497Z,82.50
2019-02-02T03:33:09.839Z,80.57
2019-02-02T03:35:58.999Z,89.17
2019-02-02T03:38:48.078Z,84.27
2019-02-02T03:41:37.212Z,87.50
2019-02-02T03:44:26.732Z,83.30
2019-02-02T03:50:10.319Z,89.47
2019-02-02T03:52:59.403Z,95.47
2019-02-02T03:55:48.598Z,94.63
2019-02-02T03:58:37.725Z,94.17
2019-02-02T04:01:29.868Z,95.47
2019-02-02T04:04:17.690Z,88.33
2019-02-02T04:07:06.791Z,100.40
2019-02-02T04:09:55.920Z,97.37
2019-02-02T04:12:45.040Z,109.37
2019-02-02T04:15:34.248Z,96.53
2019-02-02T04:18:23.649Z,95.63
2019-02-02T04:21:06.259Z,104.03
2019-02-02T04:23:55.674Z,116.17
2019-02-02T04:26:44.806Z,120.43
2019-02-02T04:29:33.914Z,106.23
2019-02-02T04:32:23.041Z,108.57
2019-02-02T04:35:12.424Z,99.40
2019-02-02T04:38:01.810Z,101.93
2019-02-02T04:40:51.526Z,102.30
2019-02-02T04:43:40.707Z,109.13
2019-02-02T04:46:29.857Z,107.77
2019-02-02T04:49:19.013Z,107.93
2019-02-02T04:52:08.328Z,108.30
2019-02-02T04:54:58.046Z,109.77
2019-02-02T04:57:49.477Z,103.30
2019-02-02T05:00:38.580Z,115.47
2019-02-02T05:03:27.709Z,101.83
2019-02-02T05:06:16.823Z,106.10
2019-02-02T05:09:47.247Z,108.57
2019-02-02T05:12:36.623Z,111.70
2019-02-02T05:15:25.730Z,106.97
2019-02-02T05:18:14.842Z,109.50
2019-02-02T05:20:56.617Z,98.50
2019-02-02T05:23:45.701Z,91.80
2019-02-02T05:26:35.067Z,99.53
2019-02-02T05:29:24.550Z,101.83
2019-02-02T05:32:15.827Z,111.73
2019-02-02T05:35:45.061Z,101.50
2019-02-02T05:38:34.511Z,100.90
2019-02-02T05:41:24.286Z,108.17
2019-02-02T05:44:13.390Z,98.13
2019-02-02T05:47:02.796Z,96.60
2019-02-02T05:49:51.892Z,95.13
2019-02-02T05:52:41.032Z,102.30
2019-02-02T05:55:30.503Z,100.83
2019-02-02T05:58:19.650Z,110.03
2019-02-02T06:04:07.212Z,91.23
2019-02-02T06:06:56.590Z,94.47
2019-02-02T06:09:45.934Z,94.80
2019-02-02T06:12:35.539Z,96.90
2019-02-02T06:15:24.713Z,96.43
2019-02-02T06:18:14.096Z,103.93
2019-02-02T06:20:56.482Z,99.20
2019-02-02T06:23:45.573Z,106.57
2019-02-02T06:26:34.696Z,110.40
2019-02-02T06:29:23.837Z,125.60
2019-02-02T06:32:12.957Z,115.70
2019-02-02T06:35:02.321Z,117.80
2019-02-02T06:37:51.459Z,117.07
2019-02-02T06:40:40.559Z,117.10
2019-02-02T06:43:30.367Z,123.47
2019-02-02T06:46:20.814Z,123.50
2019-02-02T06:49:09.932Z,113.33
2019-02-02T06:51:59.169Z,124.40
2019-02-02T06:54:48.260Z,117.93
2019-02-02T06:57:37.381Z,117.47
2019-02-02T07:00:26.931Z,123.93
2019-02-02T07:03:17.729Z,108.80
2019-02-02T07:06:07.134Z,125.73
2019-02-02T07:08:56.468Z,131.20
2019-02-02T07:11:45.592Z,117.17
2019-02-02T07:14:35.057Z,126.80
2019-02-02T07:17:24.181Z,126.27
2019-02-02T07:20:07.352Z,127.67
2019-02-02T07:22:49.585Z,121.17
2019-02-02T07:25:39.305Z,123.43
2019-02-02T07:28:28.453Z,131.37
2019-02-02T07:31:17.676Z,115.63
2019-02-02T07:34:06.767Z,132.80
2019-02-02T07:43:19.858Z,133.73
2019-02-02T07:46:14.896Z,119.00
2019-02-02T07:48:59.815Z,121.50
2019-02-02T07:51:49.240Z,128.57
2019-02-02T07:54:38.692Z,132.57
2019-02-02T07:57:27.798Z,108.83
2019-02-02T08:00:41.094Z,151.17
2019-02-02T08:03:28.953Z,148.07
2019-02-02T08:06:19.772Z,122.03
2019-02-02T08:09:49.122Z,123.57
2019-02-02T08:12:38.215Z,128.03
2019-02-02T08:16:08.467Z,133.07
2019-02-02T08:18:57.556Z,131.17
2019-02-02T08:21:46.700Z,144.37
2019-02-02T08:24:38.548Z,131.13
2019-02-02T08:27:26.696Z,133.90
2019-02-02T08:30:18.139Z,132.27
2019-02-02T08:33:07.428Z,133.03
2019-02-02T08:35:56.776Z,136.80
2019-02-02T08:38:45.957Z,127.53
2019-02-02T08:41:35.435Z,127.47
2019-02-02T08:44:25.036Z,124.83
2019-02-02T08:47:14.137Z,131.37
2019-02-02T08:50:03.344Z,132.20
2019-02-02T08:52:52.476Z,127.27
2019-02-02T08:55:41.554Z,129.70
2019-02-02T08:58:30.760Z,119.57
2019-02-02T09:01:20.224Z,129.67
2019-02-02T09:04:09.547Z,138.70
2019-02-02T09:06:59.071Z,129.60
2019-02-02T09:09:48.451Z,129.00
2019-02-02T09:12:37.693Z,141.73
2019-02-02T09:15:27.130Z,134.67
2019-02-02T09:18:16.641Z,118.80
2019-02-02T09:20:58.855Z,128.17
2019-02-02T09:23:47.970Z,122.73
2019-02-02T09:26:37.116Z,130.97
2019-02-02T09:29:26.625Z,127.27
2019-02-02T09:32:15.944Z,125.40
2019-02-02T09:34:58.304Z,129.77
2019-02-02T09:37:47.697Z,118.50
2019-02-02T09:43:31.057Z,129.03
2019-02-02T09:46:20.164Z,126.50
2019-02-02T09:49:10.089Z,127.83
2019-02-02T09:51:59.189Z,119.07
2019-02-02T09:54:48.599Z,122.47
2019-02-02T09:57:37.753Z,121.63
2019-02-02T10:00:31.221Z,117.87
2019-02-02T10:03:20.657Z,115.77
2019-02-02T10:06:09.733Z,122.73
2019-02-02T10:08:59.112Z,122.90
2019-02-02T10:11:48.529Z,117.13
2019-02-02T10:14:37.673Z,124.63
2019-02-02T10:17:26.884Z,116.57
2019-02-02T10:23:18.722Z,129.93
2019-02-02T10:26:15.640Z,126.50
2019-02-02T10:29:05.081Z,121.80
2019-02-02T10:31:54.185Z,137.23
2019-02-02T10:34:43.886Z,132.97
2019-02-02T10:37:25.594Z,122.87
2019-02-02T10:40:14.865Z,125.90
2019-02-02T10:46:19.725Z,131.20
2019-02-02T10:49:08.893Z,143.53
2019-02-02T10:51:58.010Z,133.27
2019-02-02T10:55:08.318Z,141.40
2019-02-02T11:01:12.766Z,140.80
2019-02-02T11:04:01.976Z,132.33
2019-02-02T11:06:51.137Z,139.30
2019-02-02T11:09:40.207Z,148.33
2019-02-02T11:12:29.348Z,145.57
2019-02-02T11:15:19.430Z,148.40
2019-02-02T11:18:10.118Z,143.73
2019-02-02T11:20:59.697Z,158.33
2019-02-02T11:23:42.067Z,160.57
2019-02-02T11:26:31.222Z,172.20
2019-02-02T11:29:20.768Z,172.73
2019-02-02T11:32:10.264Z,195.87
2019-02-02T11:34:59.414Z,180.80
2019-02-02T11:37:48.678Z,193.20
2019-02-02T11:40:37.889Z,190.47
2019-02-02T11:43:27.043Z,204.47
2019-02-02T11:46:16.172Z,207.90
2019-02-02T11:49:05.394Z,183.13
2019-02-02T11:51:54.507Z,170.33
2019-02-02T11:54:44.337Z,189.17
2019-02-02T11:57:33.686Z,192.60
2019-02-02T12:00:25.165Z,192.37
2019-02-02T12:03:14.246Z,175.87
2019-02-02T12:06:03.360Z,170.47
2019-02-02T12:08:52.828Z,181.10
2019-02-02T12:11:41.980Z,181.13
2019-02-02T12:14:31.105Z,186.33
2019-02-02T12:17:20.245Z,183.80
2019-02-02T12:20:11.081Z,186.03
2019-02-02T12:23:00.216Z,203.23
2019-02-02T12:25:41.862Z,191.70
2019-02-02T12:28:30.996Z,197.17
2019-02-02T12:31:20.110Z,200.93
2019-02-02T12:34:09.251Z,200.73
2019-02-02T12:36:58.371Z,204.83
2019-02-02T12:39:47.510Z,208.07
2019-02-02T12:42:36.642Z,246.10
2019-02-02T12:45:49.270Z,231.33
2019-02-02T12:48:38.456Z,226.57
2019-02-02T12:51:27.687Z,228.10
2019-02-02T12:54:16.823Z,213.60
2019-02-02T12:57:05.983Z,190.80
2019-02-02T12:59:55.218Z,178.73
2019-02-02T13:02:44.717Z,207.00
2019-02-02T13:05:33.865Z,202.33
2019-02-02T13:08:23.311Z,209.83
2019-02-02T13:11:12.525Z,194.40
2019-02-02T13:14:01.887Z,192.80
2019-02-02T13:16:51.003Z,184.20
2019-02-02T13:19:40.092Z,188.00
2019-02-02T13:22:29.270Z,211.53
2019-02-02T13:25:12.742Z,173.63
2019-02-02T13:28:01.898Z,183.37
2019-02-02T13:30:51.111Z,191.07
2019-02-02T13:33:40.202Z,164.20
2019-02-02T13:36:48.553Z,190.37
2019-02-02T13:39:37.964Z,200.20
2019-02-02T13:42:27.124Z,163.83
2019-02-02T13:45:56.420Z,165.33
2019-02-02T13:48:46.175Z,187.93
2019-02-02T13:51:35.279Z,168.93
2019-02-02T13:54:24.447Z,167.40
2019-02-02T13:57:13.556Z,173.70
2019-02-02T14:00:02.730Z,155.33
2019-02-02T14:03:02.420Z,157.27
2019-02-02T14:05:42.998Z,155.00
2019-02-02T14:08:32.483Z,154.47
2019-02-02T14:11:21.607Z,158.47
2019-02-02T14:14:10.721Z,143.77
2019-02-02T14:17:19.378Z,139.33
2019-02-02T14:20:09.817Z,140.10
2019-02-02T14:22:59.029Z,132.60
2019-02-02T14:25:40.500Z,126.60
2019-02-02T14:28:29.701Z,130.73
2019-02-02T14:31:19.119Z,131.13
2019-02-02T14:34:08.447Z,131.10
2019-02-02T14:36:57.533Z,121.90
2019-02-02T14:39:49.140Z,116.23
2019-02-02T14:42:37.524Z,131.53
2019-02-02T14:45:27.909Z,109.53
2019-02-02T14:48:17.891Z,124.30
2019-02-02T14:51:07.071Z,119.83
2019-02-02T14:53:56.402Z,118.20
2019-02-02T14:56:48.204Z,119.93
2019-02-02T14:59:37.102Z,124.40
2019-02-02T15:02:26.278Z,133.23
2019-02-02T15:05:16.227Z,122.27
2019-02-02T15:08:05.491Z,133.37
2019-02-02T15:10:54.574Z,130.87
2019-02-02T15:13:43.721Z,127.70
2019-02-02T15:16:32.961Z,130.80
2019-02-02T15:19:22.097Z,129.57
2019-02-02T15:22:11.310Z,139.70
2019-02-02T15:25:00.454Z,137.50
2019-02-02T15:27:50.022Z,147.93
2019-02-02T15:30:39.563Z,135.57
2019-02-02T15:33:37.508Z,150.03
2019-02-02T15:36:19.819Z,137.73
2019-02-02T15:39:49.769Z,132.80
2019-02-02T15:42:38.848Z,146.87
2019-02-02T15:48:23.295Z,132.57
2019-02-02T15:51:12.707Z,133.00
2019-02-02T15:57:10.125Z,141.67
2019-02-02T15:59:59.251Z,128.77
2019-02-02T16:02:48.621Z,154.73
2019-02-02T16:05:37.959Z,148.07
2019-02-02T16:08:27.527Z,148.67
2019-02-02T16:11:16.624Z,142.27
2019-02-02T16:14:06.181Z,153.10
2019-02-02T16:16:55.286Z,143.13
2019-02-02T16:19:44.398Z,162.37
2019-02-02T16:22:33.482Z,158.80
2019-02-02T16:25:15.288Z,157.90
2019-02-02T16:27:56.330Z,131.47
2019-02-02T16:30:45.472Z,138.03
2019-02-02T16:33:34.588Z,150.83
2019-02-02T16:36:23.797Z,148.80
2019-02-02T16:39:12.877Z,152.03
2019-02-02T16:42:02.000Z,140.70
2019-02-02T16:44:51.106Z,139.90
2019-02-02T16:47:40.230Z,135.97
2019-02-02T16:50:29.513Z,148.23
2019-02-02T16:53:21.714Z,142.47
2019-02-02T16:56:10.033Z,146.00
2019-02-02T16:58:59.164Z,148.17
2019-02-02T17:01:50.008Z,149.53
2019-02-02T17:04:39.141Z,159.20
2019-02-02T17:07:28.281Z,160.00
2019-02-02T17:10:20.069Z,153.27
2019-02-02T17:13:09.539Z,161.53
2019-02-02T17:15:59.031Z,166.93
2019-02-02T17:18:48.240Z,157.77
2019-02-02T17:21:37.341Z,168.30
2019-02-02T17:24:26.510Z,154.30
2019-02-02T17:27:15.630Z,155.03
2019-02-02T17:29:57.362Z,152.13
2019-02-02T17:32:46.631Z,154.83
2019-02-02T17:35:36.368Z,151.43
2019-02-02T17:38:25.504Z,158.07
2019-02-02T17:41:14.913Z,160.03
2019-02-02T17:44:04.130Z,156.17
2019-02-02T17:46:53.853Z,159.03
2019-02-02T17:49:43.267Z,177.50
2019-02-02T17:52:33.406Z,166.10
2019-02-02T17:55:22.506Z,162.40
2019-02-02T17:58:13.400Z,151.80
2019-02-02T18:01:02.937Z,162.37
2019-02-02T18:03:32.826Z,160.53
2019-02-02T18:06:02.948Z,163.47
2019-02-02T18:08:52.447Z,173.60
2019-02-02T18:11:41.801Z,149.83
2019-02-02T18:14:30.982Z,165.03
2019-02-02T18:17:21.136Z,155.10
2019-02-02T18:20:12.071Z,170.90
2019-02-02T18:22:41.928Z,159.27
2019-02-02T18:25:31.166Z,177.40
2019-02-02T18:28:01.090Z,171.43
2019-02-02T18:30:31.470Z,177.80
2019-02-02T18:33:01.422Z,171.73
2019-02-02T18:35:31.374Z,162.50
2019-02-02T18:38:01.318Z,170.27
2019-02-02T18:40:31.157Z,172.57
2019-02-02T18:43:01.029Z,185.50
2019-02-02T18:45:31.090Z,181.37
2019-02-02T18:48:01.077Z,176.17
2019-02-02T18:50:31.356Z,160.47
2019-02-02T18:53:01.259Z,182.27
2019-02-02T18:55:38.866Z,167.90
2019-02-02T18:58:08.732Z,155.03
2019-02-02T19:00:38.662Z,174.80
2019-02-02T19:03:09.058Z,173.90
2019-02-02T19:05:38.953Z,180.90
2019-02-02T19:08:09.038Z,180.83
2019-02-02T19:10:40.051Z,187.87
2019-02-02T19:13:10.413Z,202.10
2019-02-02T19:15:40.384Z,204.57
2019-02-02T19:18:10.385Z,186.00
2019-02-02T19:20:40.249Z,211.83
2019-02-02T19:23:10.218Z,200.50
2019-02-02T19:25:40.089Z,211.80
2019-02-02T19:28:10.223Z,204.07
2019-02-02T19:30:40.194Z,201.37
2019-02-02T19:33:10.688Z,206.37
2019-02-02T19:35:40.706Z,216.63
2019-02-02T19:38:10.862Z,213.57
2019-02-02T19:40:40.720Z,186.87
2019-02-02T19:43:10.661Z,201.90
2019-02-02T19:45:40.553Z,216.23
2019-02-02T19:48:10.407Z,182.77
2019-02-02T19:50:40.290Z,189.50
2019-02-02T19:53:10.266Z,194.73
2019-02-02T19:55:40.483Z,174.93
2019-02-02T19:58:10.444Z,192.43
2019-02-02T20:00:40.722Z,185.40
2019-02-02T20:03:10.573Z,181.90
2019-02-02T20:05:40.503Z,176.77
2019-02-02T20:08:10.372Z,188.77
2019-02-02T20:10:40.252Z,169.60
2019-02-02T20:13:10.113Z,170.03
2019-02-02T20:15:40.016Z,198.63
2019-02-02T20:18:10.734Z,187.03
2019-02-02T20:20:40.748Z,193.50
2019-02-02T20:23:10.628Z,171.13
2019-02-02T20:25:40.553Z,183.90
2019-02-02T20:28:10.504Z,185.40
2019-02-02T20:30:40.500Z,178.37
2019-02-02T20:33:10.405Z,182.17
2019-02-02T20:35:42.451Z,168.77
2019-02-02T20:38:12.354Z,158.93
2019-02-02T20:40:42.237Z,179.87
2019-02-02T20:43:12.098Z,184.70
2019-02-02T20:45:42.056Z,184.23
2019-02-02T20:48:11.944Z,168.07
2019-02-02T20:50:41.843Z,154.43
2019-02-02T20:53:11.812Z,175.50
2019-02-02T20:55:44.931Z,168.70
2019-02-02T20:58:14.787Z,172.23
2019-02-02T21:00:44.749Z,162.23
2019-02-02T21:03:14.710Z,171.83
2019-02-02T21:05:51.871Z,168.97
2019-02-02T21:08:16.148Z,169.33
2019-02-02T21:10:46.033Z,176.33
2019-02-02T21:13:15.924Z,178.57
2019-02-02T21:15:46.091Z,166.07
2019-02-02T21:18:16.264Z,167.47
2019-02-02T21:20:46.144Z,177.50
2019-02-02T21:23:16.021Z,165.53
2019-02-02T21:25:46.008Z,163.00
2019-02-02T21:28:16.250Z,183.07
2019-02-02T21:30:46.158Z,186.47
2019-02-02T21:33:15.997Z,166.93
2019-02-02T21:35:48.804Z,187.43
2019-02-02T21:38:17.568Z,178.40
2019-02-02T21:40:47.527Z,186.47
2019-02-02T21:43:17.409Z,190.17
2019-02-02T21:45:47.282Z,179.40
2019-02-02T21:48:17.130Z,187.30
2019-02-02T21:50:47.069Z,178.67
2019-02-02T21:53:17.233Z,190.53
2019-02-02T21:55:47.108Z,191.57
2019-02-02T21:58:17.584Z,198.77
2019-02-02T22:00:47.536Z,185.87
2019-02-02T22:03:17.395Z,180.67
2019-02-02T22:05:47.251Z,179.60
2019-02-02T22:08:17.152Z,189.23
2019-02-02T22:10:47.115Z,199.77
2019-02-02T22:13:17.351Z,197.00
2019-02-02T22:15:47.228Z,198.70
2019-02-02T22:18:17.186Z,178.33
2019-02-02T22:20:47.375Z,177.67
2019-02-02T22:23:17.233Z,174.13
2019-02-02T22:25:47.317Z,202.23
2019-02-02T22:28:17.210Z,195.23
2019-02-02T22:30:47.065Z,183.63
2019-02-02T22:33:16.920Z,182.43
2019-02-02T22:35:47.057Z,172.07
2019-02-02T22:38:16.971Z,182.80
2019-02-02T22:40:46.891Z,192.73
2019-02-02T22:43:16.748Z,175.43
2019-02-02T22:45:46.648Z,178.80
2019-02-02T22:48:16.604Z,175.47
2019-02-02T22:50:46.600Z,174.20
2019-02-02T22:53:16.674Z,188.30
2019-02-02T22:55:46.870Z,181.30
2019-02-02T22:58:16.730Z,182.37
2019-02-02T23:01:02.643Z,187.20
2019-02-02T23:03:44.088Z,180.53
2019-02-02T23:07:19.553Z,163.43
2019-02-02T23:10:50.847Z,158.90
2019-02-02T23:13:47.410Z,176.90
2019-02-02T23:16:29.351Z,173.60
2019-02-02T23:19:00.859Z,150.80
2019-02-02T23:21:32.234Z,150.07
2019-02-02T23:24:02.393Z,146.93
2019-02-02T23:26:32.468Z,159.00
2019-02-02T23:29:02.464Z,166.80
2019-02-02T23:31:32.337Z,156.33
2019-02-02T23:34:02.204Z,161.70
2019-02-02T23:36:32.159Z,154.07
2019-02-02T23:39:03.258Z,168.27
2019-02-02T23:41:33.406Z,177.47
2019-02-02T23:44:03.644Z,168.43
2019-02-02T23:46:33.615Z,161.33
2019-02-02T23:49:03.509Z,166.40
2019-02-02T23:51:33.467Z,165.67
2019-02-02T23:54:04.044Z,155.40
2019-02-02T23:56:34.267Z,156.20
2019-02-02T23:59:04.582Z,167.93
